This is the latest recevied weather packets stored in our database for station/object WW1TA. If no packets are shown the sender has not sent any weather packets the latest 1 day(s).
| Time | Temp. | Humidity | Pressure | Rain* | Wind** | Luminosity | Snow |
|---|---|---|---|---|---|---|---|
| 1778001461 | 26.11° C | 47% | 1020.2 hPa | 0 mm | 1.34 m/s, 221° | 599 W/m² | - |
| 1778001158 | 26.11° C | 49% | 1020.2 hPa | 0 mm | 0.45 m/s, 357° | 805 W/m² | - |
| 1778000854 | 26.11° C | 46% | 1020.4 hPa | 0 mm | 1.34 m/s, 286° | 730 W/m² | - |
| 1778000552 | 25.56° C | 52% | 1020.4 hPa | 0 mm | 0.45 m/s, 234° | 635 W/m² | - |
| 1778000247 | 26.11° C | 46% | 1020.4 hPa | 0 mm | 0.89 m/s, 233° | 712 W/m² | - |
| 1777999943 | 25.56° C | 50% | 1020.4 hPa | 0 mm | 1.34 m/s, 274° | 793 W/m² | - |
| 1777999638 | 26.11° C | 49% | 1020.5 hPa | 0 mm | 0 m/s | 777 W/m² | - |
| 1777999336 | 26.11° C | 51% | 1020.6 hPa | 0 mm | 0 m/s | 752 W/m² | - |
| 1777999034 | 25.56° C | 51% | 1020.6 hPa | 0 mm | 1.34 m/s, 251° | 842 W/m² | - |
| 1777998732 | 25.56° C | 50% | 1020.6 hPa | 0 mm | 1.34 m/s, 257° | 710 W/m² | - |
| 1777998429 | 25.56° C | 50% | 1020.6 hPa | 0 mm | 1.34 m/s, 264° | 774 W/m² | - |
| 1777998126 | 25.56° C | 50% | 1020.8 hPa | 0 mm | 0.89 m/s, 258° | 728 W/m² | - |
| 1777997823 | 25° C | 51% | 1020.8 hPa | 0 mm | 0.45 m/s, 264° | 798 W/m² | - |
| 1777997521 | 25.56° C | 49% | 1020.9 hPa | 0 mm | 1.34 m/s, 233° | 829 W/m² | - |
| 1777997218 | 24.44° C | 53% | 1020.7 hPa | 0 mm | 0.89 m/s, 241° | 789 W/m² | - |
| 1777996916 | 25.56° C | 50% | 1020.6 hPa | 0 mm | 1.34 m/s, 264° | 821 W/m² | - |
| 1777996611 | 25.56° C | 51% | 1020.7 hPa | 0 mm | 0.45 m/s, 276° | 826 W/m² | - |
| 1777996308 | 25.56° C | 51% | 1020.8 hPa | 0 mm | 0.45 m/s, 285° | 719 W/m² | - |
| 1777996004 | 26.11° C | 51% | 1020.8 hPa | 0 mm | 0.89 m/s, 264° | 789 W/m² | - |
| 1777995700 | 26.67° C | 49% | 1020.8 hPa | 0 mm | 0 m/s | 862 W/m² | - |
| 1777995398 | 26.67° C | 49% | 1020.8 hPa | 0 mm | 1.79 m/s, 256° | 783 W/m² | - |
| 1777995095 | 25.56° C | 51% | 1020.7 hPa | 0 mm | 1.79 m/s, 289° | 761 W/m² | - |
| 1777994791 | 25.56° C | 51% | 1020.6 hPa | 0 mm | 0 m/s | 643 W/m² | - |
| 1777994487 | 25.56° C | 50% | 1020.7 hPa | 0 mm | 1.34 m/s, 245° | 758 W/m² | - |
| 1777994183 | 26.11° C | 48% | 1020.7 hPa | 0 mm | 1.34 m/s, 249° | 732 W/m² | - |
* Rain latest hour (hover to see other rain measurements)
** Current wind speed in m/s (hover to see current wind gust speed)